createdAt,value
2023-02-14T00:03:00.071Z,19.33
2023-02-14T00:07:02.282Z,17.13
2023-02-14T00:11:05.538Z,21.63
2023-02-14T00:15:23.728Z,13.50
2023-02-14T00:19:25.906Z,17.40
2023-02-14T00:23:28.068Z,18.33
2023-02-14T00:27:29.837Z,20.13
2023-02-14T00:31:32.066Z,18.33
2023-02-14T00:35:37.896Z,16.42
2023-02-14T00:39:40.034Z,18.60
2023-02-14T00:43:42.137Z,19.35
2023-02-14T00:47:43.993Z,19.13
2023-02-14T00:51:46.861Z,20.98
2023-02-14T00:55:48.817Z,18.38
2023-02-14T00:59:50.944Z,20.27
2023-02-14T01:03:53.434Z,19.98
2023-02-14T01:07:55.642Z,18.23
2023-02-14T01:11:57.868Z,28.48
2023-02-14T01:16:06.987Z,24.42
2023-02-14T01:20:09.724Z,24.10
2023-02-14T01:24:12.796Z,27.13
2023-02-14T01:28:18.267Z,27.63
2023-02-14T01:32:20.253Z,24.60
2023-02-14T01:36:24.265Z,21.40
2023-02-14T01:40:26.467Z,29.25
2023-02-14T01:44:28.513Z,28.58
2023-02-14T01:48:30.678Z,29.95
2023-02-14T01:52:42.058Z,30.92
2023-02-14T01:56:49.575Z,24.75
2023-02-14T02:00:57.647Z,29.05
2023-02-14T02:05:00.467Z,33.25
2023-02-14T02:09:12.993Z,28.38
2023-02-14T02:13:17.848Z,42.08
2023-02-14T02:18:03.036Z,31.73
2023-02-14T02:22:14.005Z,30.27
2023-02-14T02:26:27.844Z,28.23
2023-02-14T02:30:59.432Z,28.20
2023-02-14T02:35:36.639Z,36.65
2023-02-14T02:39:58.774Z,32.80
2023-02-14T02:44:16.130Z,40.97
2023-02-14T02:48:23.287Z,34.47
2023-02-14T02:53:04.174Z,31.70
2023-02-14T02:57:16.270Z,34.90
2023-02-14T03:01:26.965Z,27.77
2023-02-14T03:05:32.148Z,35.03
2023-02-14T03:09:36.129Z,30.30
2023-02-14T03:13:56.517Z,33.80
2023-02-14T03:18:27.394Z,37.58
2023-02-14T03:22:38.137Z,28.45
2023-02-14T03:26:47.484Z,31.92
2023-02-14T03:31:04.733Z,34.28
2023-02-14T03:35:15.275Z,36.33
2023-02-14T03:39:23.194Z,28.08
2023-02-14T03:43:30.434Z,29.23
2023-02-14T03:47:35.874Z,31.52
2023-02-14T03:51:39.351Z,36.10
2023-02-14T03:55:47.500Z,36.47
2023-02-14T03:59:50.150Z,38.95
2023-02-14T04:03:54.201Z,34.65
2023-02-14T04:07:57.905Z,32.05
2023-02-14T04:12:00.102Z,36.67
2023-02-14T04:16:02.812Z,41.58
2023-02-14T04:20:05.877Z,37.22
2023-02-14T04:24:07.625Z,33.55
2023-02-14T04:28:09.833Z,29.10
2023-02-14T04:32:15.530Z,34.85
2023-02-14T04:36:17.331Z,45.75
2023-02-14T04:40:19.611Z,40.20
2023-02-14T04:44:21.990Z,37.95
2023-02-14T04:48:24.208Z,41.40
2023-02-14T04:52:26.545Z,44.90
2023-02-14T04:56:28.834Z,42.22
2023-02-14T05:00:30.914Z,49.78
2023-02-14T05:04:33.014Z,37.78
2023-02-14T05:08:35.168Z,45.88
2023-02-14T05:12:37.143Z,45.42
2023-02-14T05:16:39.408Z,50.13
2023-02-14T05:20:41.557Z,43.67
2023-02-14T05:24:43.659Z,44.53
2023-02-14T05:28:45.838Z,42.92
2023-02-14T05:32:47.898Z,36.38
2023-02-14T05:36:50.070Z,36.38
2023-02-14T05:40:52.197Z,46.10
2023-02-14T05:44:54.233Z,40.35
2023-02-14T05:48:56.385Z,52.05
2023-02-14T05:52:58.596Z,42.30
2023-02-14T05:57:00.767Z,71.85
2023-02-14T06:01:03.136Z,47.13
2023-02-14T06:05:05.914Z,44.30
2023-02-14T06:09:08.063Z,42.08
2023-02-14T06:13:10.696Z,42.00
2023-02-14T06:17:13.161Z,43.63
2023-02-14T06:21:15.256Z,41.53
2023-02-14T06:25:17.423Z,38.10
2023-02-14T06:29:19.589Z,40.28
2023-02-14T06:33:22.090Z,34.35
2023-02-14T06:37:24.335Z,36.50
2023-02-14T06:41:26.530Z,44.15
2023-02-14T06:45:28.752Z,46.53
2023-02-14T06:49:30.826Z,45.20
2023-02-14T06:53:33.161Z,44.17
2023-02-14T06:57:35.530Z,46.20
2023-02-14T07:01:37.740Z,42.20
2023-02-14T07:05:40.338Z,41.75
2023-02-14T07:09:42.681Z,48.05
2023-02-14T07:13:45.076Z,41.20
2023-02-14T07:17:47.150Z,37.95
2023-02-14T07:21:49.309Z,43.75
2023-02-14T07:25:51.320Z,38.80
2023-02-14T07:29:53.568Z,46.05
2023-02-14T07:33:55.916Z,35.95
2023-02-14T07:37:59.169Z,36.38
2023-02-14T07:42:01.214Z,44.45
2023-02-14T07:46:03.688Z,39.92
2023-02-14T07:50:06.206Z,37.55
2023-02-14T07:54:08.695Z,38.30
2023-02-14T07:58:10.888Z,43.15
2023-02-14T08:02:13.065Z,38.92
2023-02-14T08:06:16.730Z,47.90
2023-02-14T08:10:19.007Z,46.97
2023-02-14T08:14:21.908Z,53.90
2023-02-14T08:18:23.919Z,55.75
2023-02-14T08:22:26.603Z,49.08
2023-02-14T08:26:28.321Z,52.28
2023-02-14T08:30:31.783Z,49.53
2023-02-14T08:34:34.642Z,48.45
2023-02-14T08:38:36.670Z,51.25
2023-02-14T08:42:38.740Z,51.63
2023-02-14T08:46:40.785Z,48.95
2023-02-14T08:50:42.840Z,61.35
2023-02-14T08:54:44.943Z,50.35
2023-02-14T08:58:47.088Z,57.47
2023-02-14T09:02:52.713Z,42.80
2023-02-14T09:06:54.861Z,49.70
2023-02-14T09:10:57.781Z,49.35
2023-02-14T09:15:00.047Z,62.88
2023-02-14T09:19:02.020Z,54.85
2023-02-14T09:23:04.137Z,51.03
2023-02-14T09:27:06.763Z,50.42
2023-02-14T09:31:21.496Z,48.90
2023-02-14T09:35:23.544Z,55.47
2023-02-14T09:39:25.512Z,49.53
2023-02-14T09:43:38.908Z,42.65
2023-02-14T09:48:18.765Z,59.08
2023-02-14T09:52:25.916Z,59.47
2023-02-14T09:56:50.393Z,52.92
2023-02-14T10:01:01.251Z,51.78
2023-02-14T10:05:28.296Z,46.20
2023-02-14T10:09:39.345Z,57.05
2023-02-14T10:13:53.071Z,57.97
2023-02-14T10:18:09.559Z,74.70
2023-02-14T10:22:17.279Z,51.58
2023-02-14T10:26:28.430Z,55.97
2023-02-14T10:30:38.877Z,46.10
2023-02-14T10:34:47.973Z,57.72
2023-02-14T10:39:03.464Z,56.17
2023-02-14T10:43:15.450Z,51.25
2023-02-14T10:47:30.685Z,49.55
2023-02-14T10:51:49.065Z,53.47
2023-02-14T10:55:57.072Z,45.38
2023-02-14T11:00:02.402Z,50.45
2023-02-14T11:04:08.527Z,46.40
2023-02-14T11:08:34.363Z,56.88
2023-02-14T11:12:38.723Z,48.90
2023-02-14T11:16:40.902Z,53.20
2023-02-14T11:20:43.332Z,46.15
2023-02-14T11:24:47.238Z,45.55
2023-02-14T11:28:57.937Z,43.33
2023-02-14T11:33:00.337Z,53.65
2023-02-14T11:37:03.856Z,48.60
2023-02-14T11:41:13.469Z,52.70
2023-02-14T11:45:36.683Z,42.50
2023-02-14T11:49:38.656Z,51.85
2023-02-14T11:53:43.529Z,61.95
2023-02-14T11:57:45.671Z,49.85
2023-02-14T12:01:47.809Z,56.95
2023-02-14T12:05:50.856Z,47.67
2023-02-14T12:10:17.371Z,47.53
2023-02-14T12:14:22.005Z,54.55
2023-02-14T12:18:56.145Z,58.03
2023-02-14T12:23:05.384Z,48.97
2023-02-14T12:27:29.754Z,52.03
2023-02-14T12:31:32.771Z,61.63
2023-02-14T12:35:40.763Z,56.13
2023-02-14T12:40:08.525Z,52.08
2023-02-14T12:44:25.648Z,50.92
2023-02-14T12:48:53.823Z,48.22
2023-02-14T12:53:30.245Z,48.95
2023-02-14T12:57:49.768Z,49.95
2023-02-14T13:02:10.926Z,46.22
2023-02-14T13:06:27.923Z,49.85
2023-02-14T13:10:57.611Z,46.20
2023-02-14T13:15:11.901Z,40.15
2023-02-14T13:19:28.820Z,41.70
2023-02-14T13:23:38.332Z,47.25
2023-02-14T13:27:41.478Z,46.50
2023-02-14T13:31:44.162Z,40.40
2023-02-14T13:35:46.980Z,42.28
2023-02-14T13:39:55.246Z,39.67
2023-02-14T13:44:01.629Z,33.78
2023-02-14T13:48:14.945Z,39.17
2023-02-14T13:52:46.222Z,42.20
2023-02-14T13:56:49.013Z,40.90
2023-02-14T14:00:54.984Z,41.55
2023-02-14T14:04:57.191Z,40.30
2023-02-14T14:08:59.222Z,39.88
2023-02-14T14:13:01.190Z,36.03
2023-02-14T14:17:19.598Z,37.08
2023-02-14T14:21:33.376Z,49.05
2023-02-14T14:25:41.652Z,36.88
2023-02-14T14:29:49.541Z,35.75
2023-02-14T14:34:02.124Z,37.78
2023-02-14T14:38:04.065Z,33.95
2023-02-14T14:42:14.892Z,30.08
2023-02-14T14:46:17.265Z,40.15
2023-02-14T14:50:26.421Z,39.67
2023-02-14T14:54:31.861Z,32.97
2023-02-14T14:58:37.227Z,42.70
2023-02-14T15:02:38.928Z,50.50
2023-02-14T15:06:41.387Z,40.05
2023-02-14T15:10:47.188Z,40.88
2023-02-14T15:14:54.674Z,45.50
2023-02-14T15:19:08.411Z,40.30
2023-02-14T15:23:19.029Z,40.63
2023-02-14T15:27:23.293Z,35.58
2023-02-14T15:31:29.524Z,35.55
2023-02-14T15:35:34.307Z,35.90
2023-02-14T15:39:41.862Z,47.50
2023-02-14T15:43:48.838Z,65.60
2023-02-14T15:47:56.378Z,94.45
2023-02-14T15:52:02.380Z,78.80
2023-02-14T15:56:12.406Z,86.45
2023-02-14T16:00:22.624Z,56.22
2023-02-14T16:04:27.566Z,54.65
2023-02-14T16:08:39.877Z,72.90
2023-02-14T16:12:44.526Z,69.40
2023-02-14T16:17:11.885Z,76.40
2023-02-14T16:21:18.541Z,66.00
2023-02-14T16:25:21.655Z,139.82
2023-02-14T16:29:23.759Z,145.32
2023-02-14T16:33:28.204Z,67.88
2023-02-14T16:37:33.632Z,79.93
2023-02-14T16:41:35.679Z,63.47
2023-02-14T16:45:37.769Z,78.68
2023-02-14T16:49:40.446Z,64.50
2023-02-14T16:53:43.388Z,63.30
2023-02-14T16:57:48.065Z,67.55
2023-02-14T17:01:50.234Z,70.07
2023-02-14T17:05:55.675Z,65.78
2023-02-14T17:10:02.015Z,64.82
2023-02-14T17:14:04.556Z,73.80
2023-02-14T17:18:13.342Z,63.47
2023-02-14T17:22:15.666Z,69.53
2023-02-14T17:26:20.659Z,67.10
2023-02-14T17:30:23.123Z,74.57
2023-02-14T17:34:25.293Z,80.88
2023-02-14T17:38:27.345Z,74.72
2023-02-14T17:42:32.699Z,73.72
2023-02-14T17:46:34.712Z,71.57
2023-02-14T17:50:36.708Z,66.47
2023-02-14T17:54:39.037Z,70.13
2023-02-14T17:58:41.224Z,76.35
2023-02-14T18:02:43.374Z,76.15
2023-02-14T18:06:45.442Z,72.00
2023-02-14T18:10:47.388Z,69.55
2023-02-14T18:14:49.419Z,74.25
2023-02-14T18:18:52.019Z,66.00
2023-02-14T18:22:54.119Z,68.43
2023-02-14T18:26:56.102Z,67.57
2023-02-14T18:31:03.866Z,76.10
2023-02-14T18:35:06.334Z,57.83
2023-02-14T18:39:09.228Z,64.65
2023-02-14T18:43:11.199Z,73.63
2023-02-14T18:47:13.643Z,75.65
2023-02-14T18:51:18.737Z,74.97
2023-02-14T18:55:21.334Z,77.50
2023-02-14T18:59:23.517Z,75.90
2023-02-14T19:03:25.547Z,79.43
2023-02-14T19:07:27.140Z,88.20
2023-02-14T19:11:34.224Z,78.38
2023-02-14T19:15:36.238Z,75.07
2023-02-14T19:19:38.264Z,80.13
2023-02-14T19:23:41.074Z,79.45
2023-02-14T19:27:43.110Z,77.03
2023-02-14T19:31:50.098Z,88.35
2023-02-14T19:36:00.727Z,76.85
2023-02-14T19:40:02.957Z,86.82
2023-02-14T19:44:06.875Z,79.72
2023-02-14T19:48:09.810Z,72.93
2023-02-14T19:52:25.705Z,83.22
2023-02-14T19:56:31.306Z,82.50
2023-02-14T20:00:33.227Z,80.75
2023-02-14T20:04:35.179Z,86.15
2023-02-14T20:08:37.229Z,85.25
2023-02-14T20:12:39.334Z,91.20
2023-02-14T20:16:41.454Z,84.95
2023-02-14T20:21:02.805Z,89.93
2023-02-14T20:25:06.378Z,87.57
2023-02-14T20:29:10.306Z,84.82
2023-02-14T20:33:12.275Z,84.85
2023-02-14T20:37:14.600Z,85.68
2023-02-14T20:41:16.776Z,93.18
2023-02-14T20:45:18.882Z,89.50
2023-02-14T20:49:22.538Z,85.95
2023-02-14T20:53:24.949Z,82.68
2023-02-14T20:57:29.131Z,95.60
2023-02-14T21:01:31.102Z,93.07
2023-02-14T21:05:33.253Z,95.03
2023-02-14T21:09:35.141Z,97.43
2023-02-14T21:13:37.692Z,94.78
2023-02-14T21:17:39.859Z,103.95
2023-02-14T21:21:41.890Z,98.00
2023-02-14T21:25:43.921Z,91.50
2023-02-14T21:29:46.178Z,91.82
2023-02-14T21:33:53.493Z,94.78
2023-02-14T21:37:55.442Z,103.28
2023-02-14T21:41:57.939Z,102.13
2023-02-14T21:46:04.171Z,104.78
2023-02-14T21:50:25.240Z,108.32
2023-02-14T21:54:27.339Z,106.43
2023-02-14T21:58:29.355Z,103.95
2023-02-14T22:02:31.592Z,99.13
2023-02-14T22:06:36.736Z,94.55
2023-02-14T22:10:40.447Z,97.72
2023-02-14T22:14:42.408Z,103.72
2023-02-14T22:18:47.337Z,95.07
2023-02-14T22:22:49.292Z,102.50
2023-02-14T22:26:51.315Z,85.63
2023-02-14T22:30:53.272Z,91.47
2023-02-14T22:34:55.236Z,91.63
2023-02-14T22:38:57.377Z,91.00
2023-02-14T22:43:00.703Z,96.50
2023-02-14T22:47:02.374Z,97.13
2023-02-14T22:51:28.166Z,95.72
2023-02-14T22:55:32.993Z,95.30
2023-02-14T22:59:35.048Z,99.53
2023-02-14T23:03:37.000Z,90.50
2023-02-14T23:07:39.167Z,98.10
2023-02-14T23:11:43.100Z,87.13
2023-02-14T23:16:04.007Z,89.70
2023-02-14T23:20:25.153Z,92.05
2023-02-14T23:24:27.167Z,89.78
2023-02-14T23:28:29.209Z,98.07
2023-02-14T23:32:31.324Z,102.57
2023-02-14T23:36:33.191Z,95.75
2023-02-14T23:40:55.371Z,96.30
2023-02-14T23:45:17.349Z,94.13
2023-02-14T23:49:20.206Z,93.40
2023-02-14T23:53:22.136Z,92.47
2023-02-14T23:57:24.153Z,103.78
